sensor_id;sensor_type;location;lat;lon;timestamp;P1;durP1;ratioP1;P2;durP2;ratioP2
51499;SDS011;39101;53.478;6.158;2023-04-24T00:00:40;17.55;;;6.15;;
51499;SDS011;39101;53.478;6.158;2023-04-24T00:03:06;14.73;;;5.90;;
51499;SDS011;39101;53.478;6.158;2023-04-24T00:05:32;15.00;;;4.97;;
51499;SDS011;39101;53.478;6.158;2023-04-24T00:07:58;19.48;;;5.95;;
51499;SDS011;39101;53.478;6.158;2023-04-24T00:10:25;19.65;;;6.57;;
51499;SDS011;39101;53.478;6.158;2023-04-24T00:12:50;17.73;;;6.18;;
51499;SDS011;39101;53.478;6.158;2023-04-24T00:15:16;17.48;;;5.22;;
51499;SDS011;39101;53.478;6.158;2023-04-24T00:17:42;9.82;;;5.00;;
51499;SDS011;39101;53.478;6.158;2023-04-24T00:20:07;13.95;;;5.25;;
51499;SDS011;39101;53.478;6.158;2023-04-24T00:22:35;11.68;;;5.50;;
51499;SDS011;39101;53.478;6.158;2023-04-24T00:25:00;12.68;;;6.53;;
51499;SDS011;39101;53.478;6.158;2023-04-24T00:27:26;16.63;;;8.13;;
51499;SDS011;39101;53.478;6.158;2023-04-24T00:29:52;16.05;;;8.73;;
51499;SDS011;39101;53.478;6.158;2023-04-24T00:32:17;13.30;;;9.57;;
51499;SDS011;39101;53.478;6.158;2023-04-24T00:34:43;16.15;;;10.45;;
51499;SDS011;39101;53.478;6.158;2023-04-24T00:37:09;14.48;;;9.15;;
51499;SDS011;39101;53.478;6.158;2023-04-24T00:39:36;16.73;;;9.35;;
51499;SDS011;39101;53.478;6.158;2023-04-24T00:42:02;14.57;;;9.50;;
51499;SDS011;39101;53.478;6.158;2023-04-24T00:44:28;14.98;;;9.98;;
51499;SDS011;39101;53.478;6.158;2023-04-24T00:46:53;13.70;;;9.73;;
51499;SDS011;39101;53.478;6.158;2023-04-24T00:49:20;13.48;;;10.27;;
51499;SDS011;39101;53.478;6.158;2023-04-24T00:51:46;14.32;;;9.35;;
51499;SDS011;39101;53.478;6.158;2023-04-24T00:54:14;14.27;;;10.38;;
51499;SDS011;39101;53.478;6.158;2023-04-24T00:56:40;13.10;;;9.52;;
51499;SDS011;39101;53.478;6.158;2023-04-24T00:59:07;15.48;;;10.07;;
51499;SDS011;39101;53.478;6.158;2023-04-24T01:01:33;13.60;;;10.50;;
51499;SDS011;39101;53.478;6.158;2023-04-24T01:04:00;16.23;;;10.85;;
51499;SDS011;39101;53.478;6.158;2023-04-24T01:06:28;14.48;;;10.95;;
51499;SDS011;39101;53.478;6.158;2023-04-24T01:08:56;14.57;;;11.55;;
51499;SDS011;39101;53.478;6.158;2023-04-24T01:11:24;14.50;;;11.30;;
51499;SDS011;39101;53.478;6.158;2023-04-24T01:13:50;14.02;;;11.10;;
51499;SDS011;39101;53.478;6.158;2023-04-24T01:16:16;14.38;;;11.00;;
51499;SDS011;39101;53.478;6.158;2023-04-24T01:18:42;12.23;;;10.32;;
51499;SDS011;39101;53.478;6.158;2023-04-24T01:21:09;14.05;;;11.13;;
51499;SDS011;39101;53.478;6.158;2023-04-24T01:23:40;13.07;;;10.35;;
51499;SDS011;39101;53.478;6.158;2023-04-24T01:26:05;12.82;;;10.38;;
51499;SDS011;39101;53.478;6.158;2023-04-24T01:28:31;17.08;;;11.93;;
51499;SDS011;39101;53.478;6.158;2023-04-24T01:30:57;13.80;;;10.52;;
51499;SDS011;39101;53.478;6.158;2023-04-24T01:33:23;18.17;;;11.77;;
51499;SDS011;39101;53.478;6.158;2023-04-24T01:35:48;15.40;;;10.77;;
51499;SDS011;39101;53.478;6.158;2023-04-24T01:38:15;17.55;;;11.93;;
51499;SDS011;39101;53.478;6.158;2023-04-24T01:40:41;15.05;;;12.13;;
51499;SDS011;39101;53.478;6.158;2023-04-24T01:43:06;12.80;;;10.20;;
51499;SDS011;39101;53.478;6.158;2023-04-24T01:45:32;13.73;;;10.98;;
51499;SDS011;39101;53.478;6.158;2023-04-24T01:47:58;14.25;;;12.75;;
51499;SDS011;39101;53.478;6.158;2023-04-24T01:50:25;12.32;;;9.95;;
51499;SDS011;39101;53.478;6.158;2023-04-24T01:52:51;14.27;;;10.85;;
51499;SDS011;39101;53.478;6.158;2023-04-24T01:55:16;14.40;;;11.05;;
51499;SDS011;39101;53.478;6.158;2023-04-24T01:57:42;13.30;;;10.48;;
51499;SDS011;39101;53.478;6.158;2023-04-24T02:00:08;15.77;;;11.00;;
51499;SDS011;39101;53.478;6.158;2023-04-24T02:02:36;12.48;;;10.25;;
51499;SDS011;39101;53.478;6.158;2023-04-24T02:05:02;14.50;;;10.85;;
51499;SDS011;39101;53.478;6.158;2023-04-24T02:07:28;15.82;;;10.93;;
51499;SDS011;39101;53.478;6.158;2023-04-24T02:09:53;12.65;;;11.35;;
51499;SDS011;39101;53.478;6.158;2023-04-24T02:12:20;13.25;;;9.77;;
51499;SDS011;39101;53.478;6.158;2023-04-24T02:14:46;12.68;;;10.40;;
51499;SDS011;39101;53.478;6.158;2023-04-24T02:17:11;18.35;;;10.57;;
51499;SDS011;39101;53.478;6.158;2023-04-24T02:19:38;12.65;;;10.60;;
51499;SDS011;39101;53.478;6.158;2023-04-24T02:22:04;15.27;;;10.80;;
51499;SDS011;39101;53.478;6.158;2023-04-24T02:24:29;13.23;;;10.70;;
51499;SDS011;39101;53.478;6.158;2023-04-24T02:26:55;13.05;;;10.77;;
51499;SDS011;39101;53.478;6.158;2023-04-24T02:29:21;11.75;;;10.18;;
51499;SDS011;39101;53.478;6.158;2023-04-24T02:31:47;11.45;;;10.10;;
51499;SDS011;39101;53.478;6.158;2023-04-24T02:34:13;11.75;;;9.77;;
51499;SDS011;39101;53.478;6.158;2023-04-24T02:36:39;13.43;;;10.02;;
51499;SDS011;39101;53.478;6.158;2023-04-24T02:39:04;12.23;;;9.93;;
51499;SDS011;39101;53.478;6.158;2023-04-24T02:41:30;12.30;;;9.70;;
51499;SDS011;39101;53.478;6.158;2023-04-24T02:43:58;13.80;;;10.80;;
51499;SDS011;39101;53.478;6.158;2023-04-24T02:46:24;10.50;;;8.65;;
51499;SDS011;39101;53.478;6.158;2023-04-24T02:48:49;11.55;;;9.35;;
51499;SDS011;39101;53.478;6.158;2023-04-24T02:51:15;10.50;;;9.23;;
51499;SDS011;39101;53.478;6.158;2023-04-24T02:53:41;11.43;;;9.27;;
51499;SDS011;39101;53.478;6.158;2023-04-24T02:56:06;10.50;;;8.73;;
51499;SDS011;39101;53.478;6.158;2023-04-24T02:58:32;12.83;;;9.97;;
51499;SDS011;39101;53.478;6.158;2023-04-24T03:00:58;10.95;;;9.70;;
51499;SDS011;39101;53.478;6.158;2023-04-24T03:03:23;8.95;;;8.02;;
51499;SDS011;39101;53.478;6.158;2023-04-24T03:05:50;10.75;;;8.60;;
51499;SDS011;39101;53.478;6.158;2023-04-24T03:08:15;11.63;;;9.23;;
51499;SDS011;39101;53.478;6.158;2023-04-24T03:10:41;13.67;;;10.53;;
51499;SDS011;39101;53.478;6.158;2023-04-24T03:13:07;19.40;;;10.47;;
51499;SDS011;39101;53.478;6.158;2023-04-24T03:15:32;15.80;;;9.57;;
51499;SDS011;39101;53.478;6.158;2023-04-24T03:17:58;25.67;;;11.25;;
51499;SDS011;39101;53.478;6.158;2023-04-24T03:20:25;16.17;;;8.33;;
51499;SDS011;39101;53.478;6.158;2023-04-24T03:22:51;18.90;;;7.23;;
51499;SDS011;39101;53.478;6.158;2023-04-24T03:25:17;19.93;;;8.67;;
51499;SDS011;39101;53.478;6.158;2023-04-24T03:27:42;24.37;;;10.70;;
51499;SDS011;39101;53.478;6.158;2023-04-24T03:30:08;17.87;;;10.47;;
51499;SDS011;39101;53.478;6.158;2023-04-24T03:32:34;20.60;;;10.40;;
51499;SDS011;39101;53.478;6.158;2023-04-24T03:35:00;19.37;;;10.37;;
51499;SDS011;39101;53.478;6.158;2023-04-24T03:37:25;20.67;;;10.87;;
51499;SDS011;39101;53.478;6.158;2023-04-24T03:39:51;22.07;;;10.33;;
51499;SDS011;39101;53.478;6.158;2023-04-24T03:42:17;23.40;;;10.50;;
51499;SDS011;39101;53.478;6.158;2023-04-24T03:44:43;18.80;;;10.43;;
51499;SDS011;39101;53.478;6.158;2023-04-24T03:47:08;17.27;;;10.60;;
51499;SDS011;39101;53.478;6.158;2023-04-24T03:49:35;18.87;;;8.90;;
51499;SDS011;39101;53.478;6.158;2023-04-24T03:52:00;20.37;;;9.33;;
51499;SDS011;39101;53.478;6.158;2023-04-24T03:54:26;16.50;;;7.37;;
51499;SDS011;39101;53.478;6.158;2023-04-24T03:56:52;12.90;;;6.73;;
51499;SDS011;39101;53.478;6.158;2023-04-24T03:59:17;16.27;;;6.60;;
51499;SDS011;39101;53.478;6.158;2023-04-24T04:01:43;15.10;;;6.50;;
51499;SDS011;39101;53.478;6.158;2023-04-24T04:04:10;11.73;;;5.23;;
51499;SDS011;39101;53.478;6.158;2023-04-24T04:06:36;15.87;;;6.23;;
51499;SDS011;39101;53.478;6.158;2023-04-24T04:09:02;10.57;;;4.97;;
51499;SDS011;39101;53.478;6.158;2023-04-24T04:11:28;14.40;;;4.63;;
51499;SDS011;39101;53.478;6.158;2023-04-24T04:13:54;14.10;;;6.40;;
51499;SDS011;39101;53.478;6.158;2023-04-24T04:16:20;14.23;;;7.67;;
51499;SDS011;39101;53.478;6.158;2023-04-24T04:18:46;14.80;;;6.80;;
51499;SDS011;39101;53.478;6.158;2023-04-24T04:21:11;15.53;;;7.70;;
51499;SDS011;39101;53.478;6.158;2023-04-24T04:23:37;14.80;;;7.57;;
51499;SDS011;39101;53.478;6.158;2023-04-24T04:26:03;14.07;;;6.83;;
51499;SDS011;39101;53.478;6.158;2023-04-24T04:28:29;10.97;;;6.43;;
51499;SDS011;39101;53.478;6.158;2023-04-24T04:30:58;15.63;;;5.77;;
51499;SDS011;39101;53.478;6.158;2023-04-24T04:33:24;8.83;;;5.33;;
51499;SDS011;39101;53.478;6.158;2023-04-24T04:35:50;11.93;;;5.33;;
51499;SDS011;39101;53.478;6.158;2023-04-24T04:38:21;16.93;;;6.37;;
51499;SDS011;39101;53.478;6.158;2023-04-24T04:40:48;12.17;;;6.70;;
51499;SDS011;39101;53.478;6.158;2023-04-24T04:43:13;17.23;;;8.17;;
51499;SDS011;39101;53.478;6.158;2023-04-24T04:45:42;16.33;;;9.10;;
51499;SDS011;39101;53.478;6.158;2023-04-24T04:48:08;18.03;;;9.80;;
51499;SDS011;39101;53.478;6.158;2023-04-24T04:50:37;13.90;;;7.63;;
51499;SDS011;39101;53.478;6.158;2023-04-24T04:53:03;14.63;;;7.47;;
51499;SDS011;39101;53.478;6.158;2023-04-24T04:55:29;11.03;;;6.00;;
51499;SDS011;39101;53.478;6.158;2023-04-24T04:57:55;9.03;;;4.87;;
51499;SDS011;39101;53.478;6.158;2023-04-24T05:00:21;9.40;;;3.80;;
51499;SDS011;39101;53.478;6.158;2023-04-24T05:02:50;11.47;;;4.03;;
51499;SDS011;39101;53.478;6.158;2023-04-24T05:05:16;9.50;;;3.50;;
51499;SDS011;39101;53.478;6.158;2023-04-24T05:07:43;9.03;;;3.70;;
51499;SDS011;39101;53.478;6.158;2023-04-24T05:10:09;9.83;;;3.80;;
51499;SDS011;39101;53.478;6.158;2023-04-24T05:12:35;7.83;;;3.77;;
51499;SDS011;39101;53.478;6.158;2023-04-24T05:15:01;9.23;;;3.83;;
51499;SDS011;39101;53.478;6.158;2023-04-24T05:17:27;11.17;;;3.90;;
51499;SDS011;39101;53.478;6.158;2023-04-24T05:19:52;11.33;;;4.20;;
51499;SDS011;39101;53.478;6.158;2023-04-24T05:22:18;10.40;;;4.17;;
51499;SDS011;39101;53.478;6.158;2023-04-24T05:24:45;8.57;;;3.63;;
51499;SDS011;39101;53.478;6.158;2023-04-24T05:27:12;11.50;;;4.40;;
51499;SDS011;39101;53.478;6.158;2023-04-24T05:29:37;8.50;;;4.10;;
51499;SDS011;39101;53.478;6.158;2023-04-24T05:32:03;12.33;;;4.33;;
51499;SDS011;39101;53.478;6.158;2023-04-24T05:34:29;7.97;;;3.60;;
51499;SDS011;39101;53.478;6.158;2023-04-24T05:36:55;6.47;;;3.70;;
51499;SDS011;39101;53.478;6.158;2023-04-24T05:39:20;13.13;;;4.07;;
51499;SDS011;39101;53.478;6.158;2023-04-24T05:41:46;7.80;;;3.43;;
51499;SDS011;39101;53.478;6.158;2023-04-24T05:44:12;10.90;;;4.00;;
51499;SDS011;39101;53.478;6.158;2023-04-24T05:46:38;7.13;;;3.27;;
51499;SDS011;39101;53.478;6.158;2023-04-24T05:49:03;8.37;;;3.10;;
51499;SDS011;39101;53.478;6.158;2023-04-24T05:51:29;11.30;;;2.57;;
51499;SDS011;39101;53.478;6.158;2023-04-24T05:53:56;10.50;;;3.73;;
51499;SDS011;39101;53.478;6.158;2023-04-24T05:56:22;6.63;;;2.80;;
51499;SDS011;39101;53.478;6.158;2023-04-24T05:58:48;6.83;;;2.50;;
51499;SDS011;39101;53.478;6.158;2023-04-24T06:01:14;8.47;;;2.93;;
51499;SDS011;39101;53.478;6.158;2023-04-24T06:03:40;7.33;;;2.97;;
51499;SDS011;39101;53.478;6.158;2023-04-24T06:06:06;7.50;;;2.90;;
51499;SDS011;39101;53.478;6.158;2023-04-24T06:08:32;8.93;;;2.70;;
51499;SDS011;39101;53.478;6.158;2023-04-24T06:10:58;10.20;;;2.57;;
51499;SDS011;39101;53.478;6.158;2023-04-24T06:13:24;7.73;;;3.00;;
51499;SDS011;39101;53.478;6.158;2023-04-24T06:15:50;9.80;;;2.80;;
51499;SDS011;39101;53.478;6.158;2023-04-24T06:18:16;8.83;;;2.67;;
51499;SDS011;39101;53.478;6.158;2023-04-24T06:20:42;3.83;;;2.10;;
51499;SDS011;39101;53.478;6.158;2023-04-24T06:23:07;10.03;;;2.80;;
51499;SDS011;39101;53.478;6.158;2023-04-24T06:25:33;9.33;;;3.27;;
51499;SDS011;39101;53.478;6.158;2023-04-24T06:27:59;9.10;;;2.93;;
51499;SDS011;39101;53.478;6.158;2023-04-24T06:30:24;8.50;;;3.20;;
51499;SDS011;39101;53.478;6.158;2023-04-24T06:32:50;7.77;;;2.87;;
51499;SDS011;39101;53.478;6.158;2023-04-24T06:35:16;10.40;;;2.50;;
51499;SDS011;39101;53.478;6.158;2023-04-24T06:37:42;10.03;;;2.40;;
51499;SDS011;39101;53.478;6.158;2023-04-24T06:40:08;4.73;;;2.27;;
51499;SDS011;39101;53.478;6.158;2023-04-24T06:42:35;4.40;;;1.40;;
51499;SDS011;39101;53.478;6.158;2023-04-24T06:45:00;8.43;;;2.00;;
51499;SDS011;39101;53.478;6.158;2023-04-24T06:47:26;10.37;;;2.23;;
51499;SDS011;39101;53.478;6.158;2023-04-24T06:49:52;7.87;;;2.43;;
51499;SDS011;39101;53.478;6.158;2023-04-24T06:52:18;11.07;;;3.47;;
51499;SDS011;39101;53.478;6.158;2023-04-24T06:54:44;8.00;;;3.50;;
51499;SDS011;39101;53.478;6.158;2023-04-24T06:57:10;10.33;;;3.70;;
51499;SDS011;39101;53.478;6.158;2023-04-24T06:59:36;12.13;;;4.50;;
51499;SDS011;39101;53.478;6.158;2023-04-24T07:02:03;11.77;;;4.60;;
51499;SDS011;39101;53.478;6.158;2023-04-24T07:04:29;17.83;;;8.07;;
51499;SDS011;39101;53.478;6.158;2023-04-24T07:06:55;16.77;;;8.83;;
51499;SDS011;39101;53.478;6.158;2023-04-24T07:09:23;18.07;;;10.13;;
51499;SDS011;39101;53.478;6.158;2023-04-24T07:11:50;19.00;;;9.97;;
51499;SDS011;39101;53.478;6.158;2023-04-24T07:14:16;23.17;;;10.97;;
51499;SDS011;39101;53.478;6.158;2023-04-24T07:16:42;34.43;;;15.33;;
51499;SDS011;39101;53.478;6.158;2023-04-24T07:19:08;30.27;;;16.07;;
51499;SDS011;39101;53.478;6.158;2023-04-24T07:21:34;22.83;;;13.53;;
51499;SDS011;39101;53.478;6.158;2023-04-24T07:24:00;27.60;;;13.83;;
51499;SDS011;39101;53.478;6.158;2023-04-24T07:26:26;23.60;;;13.40;;
51499;SDS011;39101;53.478;6.158;2023-04-24T07:28:53;30.73;;;15.97;;
51499;SDS011;39101;53.478;6.158;2023-04-24T07:31:18;28.93;;;14.73;;
51499;SDS011;39101;53.478;6.158;2023-04-24T07:33:44;26.07;;;14.53;;
51499;SDS011;39101;53.478;6.158;2023-04-24T07:36:11;28.70;;;14.90;;
51499;SDS011;39101;53.478;6.158;2023-04-24T07:38:41;29.70;;;15.68;;
51499;SDS011;39101;53.478;6.158;2023-04-24T07:41:07;23.63;;;13.03;;
51499;SDS011;39101;53.478;6.158;2023-04-24T07:43:33;25.50;;;13.33;;
51499;SDS011;39101;53.478;6.158;2023-04-24T07:45:58;27.83;;;12.50;;
51499;SDS011;39101;53.478;6.158;2023-04-24T07:48:24;23.63;;;11.40;;
51499;SDS011;39101;53.478;6.158;2023-04-24T07:50:51;24.67;;;11.87;;
51499;SDS011;39101;53.478;6.158;2023-04-24T07:53:17;20.37;;;11.33;;
51499;SDS011;39101;53.478;6.158;2023-04-24T07:55:43;18.30;;;10.73;;
51499;SDS011;39101;53.478;6.158;2023-04-24T07:58:08;26.73;;;12.30;;
51499;SDS011;39101;53.478;6.158;2023-04-24T08:00:34;22.00;;;11.90;;
51499;SDS011;39101;53.478;6.158;2023-04-24T08:03:00;22.10;;;10.03;;
51499;SDS011;39101;53.478;6.158;2023-04-24T08:05:26;26.37;;;11.83;;
51499;SDS011;39101;53.478;6.158;2023-04-24T08:07:53;24.13;;;11.33;;
51499;SDS011;39101;53.478;6.158;2023-04-24T08:10:20;21.37;;;11.07;;
51499;SDS011;39101;53.478;6.158;2023-04-24T08:12:49;22.40;;;11.18;;
51499;SDS011;39101;53.478;6.158;2023-04-24T08:15:15;22.30;;;11.40;;
51499;SDS011;39101;53.478;6.158;2023-04-24T08:17:40;22.07;;;11.90;;
51499;SDS011;39101;53.478;6.158;2023-04-24T08:20:06;20.27;;;11.57;;
51499;SDS011;39101;53.478;6.158;2023-04-24T08:22:38;16.93;;;10.87;;
51499;SDS011;39101;53.478;6.158;2023-04-24T08:25:07;18.20;;;9.53;;
51499;SDS011;39101;53.478;6.158;2023-04-24T08:27:33;16.53;;;8.03;;
51499;SDS011;39101;53.478;6.158;2023-04-24T08:29:59;17.67;;;8.97;;
51499;SDS011;39101;53.478;6.158;2023-04-24T08:32:25;17.07;;;8.47;;
51499;SDS011;39101;53.478;6.158;2023-04-24T08:34:54;14.90;;;7.87;;
51499;SDS011;39101;53.478;6.158;2023-04-24T08:37:24;18.33;;;7.97;;
51499;SDS011;39101;53.478;6.158;2023-04-24T08:39:50;19.70;;;7.43;;
51499;SDS011;39101;53.478;6.158;2023-04-24T08:42:16;18.77;;;7.63;;
51499;SDS011;39101;53.478;6.158;2023-04-24T08:44:43;20.47;;;7.47;;
51499;SDS011;39101;53.478;6.158;2023-04-24T08:47:09;15.30;;;8.43;;
51499;SDS011;39101;53.478;6.158;2023-04-24T08:49:36;14.83;;;7.20;;
51499;SDS011;39101;53.478;6.158;2023-04-24T08:52:03;18.47;;;8.03;;
51499;SDS011;39101;53.478;6.158;2023-04-24T08:54:29;20.20;;;7.87;;
51499;SDS011;39101;53.478;6.158;2023-04-24T08:56:59;17.17;;;6.70;;
51499;SDS011;39101;53.478;6.158;2023-04-24T08:59:28;24.23;;;7.73;;
51499;SDS011;39101;53.478;6.158;2023-04-24T09:01:55;20.77;;;6.80;;
51499;SDS011;39101;53.478;6.158;2023-04-24T09:04:21;21.00;;;6.57;;
51499;SDS011;39101;53.478;6.158;2023-04-24T09:06:49;18.23;;;6.50;;
51499;SDS011;39101;53.478;6.158;2023-04-24T09:09:23;15.60;;;5.53;;
51499;SDS011;39101;53.478;6.158;2023-04-24T09:11:50;17.50;;;6.33;;
51499;SDS011;39101;53.478;6.158;2023-04-24T09:14:16;13.93;;;6.47;;
51499;SDS011;39101;53.478;6.158;2023-04-24T09:16:43;22.00;;;6.17;;
51499;SDS011;39101;53.478;6.158;2023-04-24T09:19:08;16.57;;;5.37;;
51499;SDS011;39101;53.478;6.158;2023-04-24T09:21:34;20.27;;;5.63;;
51499;SDS011;39101;53.478;6.158;2023-04-24T09:24:01;18.80;;;5.17;;
51499;SDS011;39101;53.478;6.158;2023-04-24T09:26:34;23.47;;;6.37;;
51499;SDS011;39101;53.478;6.158;2023-04-24T09:29:01;19.10;;;5.13;;
51499;SDS011;39101;53.478;6.158;2023-04-24T09:31:28;14.50;;;4.87;;
51499;SDS011;39101;53.478;6.158;2023-04-24T09:33:55;14.53;;;4.60;;
51499;SDS011;39101;53.478;6.158;2023-04-24T09:36:31;10.30;;;4.03;;
51499;SDS011;39101;53.478;6.158;2023-04-24T09:39:02;15.87;;;4.87;;
51499;SDS011;39101;53.478;6.158;2023-04-24T09:41:31;11.00;;;4.27;;
51499;SDS011;39101;53.478;6.158;2023-04-24T09:44:01;11.17;;;3.93;;
51499;SDS011;39101;53.478;6.158;2023-04-24T09:46:44;15.73;;;4.03;;
51499;SDS011;39101;53.478;6.158;2023-04-24T09:49:14;12.00;;;4.00;;
51499;SDS011;39101;53.478;6.158;2023-04-24T09:51:41;11.37;;;3.30;;
51499;SDS011;39101;53.478;6.158;2023-04-24T09:54:16;8.23;;;3.13;;
51499;SDS011;39101;53.478;6.158;2023-04-24T09:56:46;15.23;;;4.07;;
51499;SDS011;39101;53.478;6.158;2023-04-24T09:59:16;13.53;;;3.90;;
51499;SDS011;39101;53.478;6.158;2023-04-24T10:06:43;9.83;;;3.57;;
51499;SDS011;39101;53.478;6.158;2023-04-24T10:09:09;13.17;;;3.93;;
51499;SDS011;39101;53.478;6.158;2023-04-24T10:11:37;10.03;;;3.50;;
51499;SDS011;39101;53.478;6.158;2023-04-24T10:14:05;13.73;;;4.10;;
51499;SDS011;39101;53.478;6.158;2023-04-24T10:16:31;10.40;;;3.07;;
51499;SDS011;39101;53.478;6.158;2023-04-24T10:18:58;10.87;;;3.50;;
51499;SDS011;39101;53.478;6.158;2023-04-24T10:21:24;15.27;;;3.70;;
51499;SDS011;39101;53.478;6.158;2023-04-24T10:23:52;14.83;;;3.40;;
51499;SDS011;39101;53.478;6.158;2023-04-24T10:26:19;15.40;;;3.70;;
51499;SDS011;39101;53.478;6.158;2023-04-24T10:28:46;13.50;;;3.97;;
51499;SDS011;39101;53.478;6.158;2023-04-24T10:31:13;10.57;;;3.60;;
51499;SDS011;39101;53.478;6.158;2023-04-24T10:33:40;16.87;;;3.80;;
51499;SDS011;39101;53.478;6.158;2023-04-24T10:36:07;12.20;;;3.20;;
51499;SDS011;39101;53.478;6.158;2023-04-24T10:38:35;12.50;;;3.40;;
51499;SDS011;39101;53.478;6.158;2023-04-24T10:41:10;10.03;;;2.77;;
51499;SDS011;39101;53.478;6.158;2023-04-24T10:43:44;15.93;;;3.80;;
51499;SDS011;39101;53.478;6.158;2023-04-24T10:46:10;15.43;;;3.00;;
51499;SDS011;39101;53.478;6.158;2023-04-24T10:48:42;19.90;;;3.93;;
51499;SDS011;39101;53.478;6.158;2023-04-24T10:51:12;14.67;;;3.30;;
51499;SDS011;39101;53.478;6.158;2023-04-24T10:53:40;15.13;;;2.87;;
51499;SDS011;39101;53.478;6.158;2023-04-24T10:56:06;12.60;;;3.97;;
51499;SDS011;39101;53.478;6.158;2023-04-24T11:01:08;15.43;;;2.67;;
51499;SDS011;39101;53.478;6.158;2023-04-24T11:03:34;11.17;;;2.40;;
51499;SDS011;39101;53.478;6.158;2023-04-24T11:06:05;19.30;;;2.97;;
51499;SDS011;39101;53.478;6.158;2023-04-24T11:11:18;18.40;;;3.17;;
51499;SDS011;39101;53.478;6.158;2023-04-24T11:19:01;12.37;;;2.43;;
51499;SDS011;39101;53.478;6.158;2023-04-24T11:21:40;17.63;;;3.40;;
51499;SDS011;39101;53.478;6.158;2023-04-24T11:26:55;12.63;;;2.67;;
51499;SDS011;39101;53.478;6.158;2023-04-24T11:29:21;12.77;;;2.40;;
51499;SDS011;39101;53.478;6.158;2023-04-24T11:31:47;10.73;;;2.00;;
51499;SDS011;39101;53.478;6.158;2023-04-24T11:34:15;12.27;;;2.20;;
51499;SDS011;39101;53.478;6.158;2023-04-24T11:36:47;11.50;;;2.73;;
51499;SDS011;39101;53.478;6.158;2023-04-24T11:39:14;14.07;;;2.20;;
51499;SDS011;39101;53.478;6.158;2023-04-24T11:41:40;18.60;;;2.30;;
51499;SDS011;39101;53.478;6.158;2023-04-24T11:44:06;16.93;;;2.40;;
51499;SDS011;39101;53.478;6.158;2023-04-24T11:46:33;10.53;;;2.00;;
51499;SDS011;39101;53.478;6.158;2023-04-24T11:48:59;12.30;;;4.10;;
51499;SDS011;39101;53.478;6.158;2023-04-24T11:51:25;12.47;;;2.70;;
51499;SDS011;39101;53.478;6.158;2023-04-24T11:53:55;16.07;;;3.60;;
51499;SDS011;39101;53.478;6.158;2023-04-24T11:56:22;7.43;;;1.80;;
51499;SDS011;39101;53.478;6.158;2023-04-24T11:58:48;9.20;;;1.70;;
51499;SDS011;39101;53.478;6.158;2023-04-24T12:01:16;9.67;;;1.77;;
51499;SDS011;39101;53.478;6.158;2023-04-24T12:03:46;7.63;;;1.50;;
51499;SDS011;39101;53.478;6.158;2023-04-24T12:06:13;9.23;;;1.70;;
51499;SDS011;39101;53.478;6.158;2023-04-24T12:08:39;10.30;;;1.83;;
51499;SDS011;39101;53.478;6.158;2023-04-24T12:11:05;13.70;;;2.87;;
51499;SDS011;39101;53.478;6.158;2023-04-24T12:13:32;7.07;;;1.70;;
51499;SDS011;39101;53.478;6.158;2023-04-24T12:15:59;7.27;;;1.40;;
51499;SDS011;39101;53.478;6.158;2023-04-24T12:18:26;6.07;;;1.70;;
51499;SDS011;39101;53.478;6.158;2023-04-24T12:23:44;11.50;;;1.70;;
51499;SDS011;39101;53.478;6.158;2023-04-24T12:26:16;7.27;;;1.90;;
51499;SDS011;39101;53.478;6.158;2023-04-24T12:28:47;10.07;;;1.47;;
51499;SDS011;39101;53.478;6.158;2023-04-24T12:31:16;7.50;;;1.75;;
51499;SDS011;39101;53.478;6.158;2023-04-24T12:33:42;8.33;;;1.87;;
51499;SDS011;39101;53.478;6.158;2023-04-24T12:36:11;11.03;;;2.00;;
51499;SDS011;39101;53.478;6.158;2023-04-24T12:38:43;10.80;;;1.70;;
51499;SDS011;39101;53.478;6.158;2023-04-24T12:41:10;13.57;;;1.77;;
51499;SDS011;39101;53.478;6.158;2023-04-24T12:43:38;5.27;;;1.27;;
51499;SDS011;39101;53.478;6.158;2023-04-24T12:46:03;13.40;;;2.33;;
51499;SDS011;39101;53.478;6.158;2023-04-24T12:48:29;9.50;;;1.80;;
51499;SDS011;39101;53.478;6.158;2023-04-24T12:50:58;9.60;;;1.60;;
51499;SDS011;39101;53.478;6.158;2023-04-24T12:53:28;8.07;;;1.60;;
51499;SDS011;39101;53.478;6.158;2023-04-24T12:55:56;7.60;;;1.60;;
51499;SDS011;39101;53.478;6.158;2023-04-24T12:58:22;8.63;;;1.67;;
51499;SDS011;39101;53.478;6.158;2023-04-24T13:00:48;10.37;;;1.67;;
51499;SDS011;39101;53.478;6.158;2023-04-24T13:03:14;9.70;;;1.80;;
51499;SDS011;39101;53.478;6.158;2023-04-24T13:05:40;10.17;;;1.67;;
51499;SDS011;39101;53.478;6.158;2023-04-24T13:08:07;6.23;;;1.20;;
51499;SDS011;39101;53.478;6.158;2023-04-24T13:10:32;5.00;;;1.33;;
51499;SDS011;39101;53.478;6.158;2023-04-24T13:12:59;10.70;;;1.60;;
51499;SDS011;39101;53.478;6.158;2023-04-24T13:15:25;10.73;;;1.90;;
51499;SDS011;39101;53.478;6.158;2023-04-24T13:17:50;9.70;;;2.10;;
51499;SDS011;39101;53.478;6.158;2023-04-24T13:20:16;9.17;;;1.87;;
51499;SDS011;39101;53.478;6.158;2023-04-24T13:22:42;11.00;;;2.20;;
51499;SDS011;39101;53.478;6.158;2023-04-24T13:25:08;10.33;;;2.20;;
51499;SDS011;39101;53.478;6.158;2023-04-24T13:27:34;9.53;;;2.17;;
51499;SDS011;39101;53.478;6.158;2023-04-24T13:30:00;15.00;;;2.23;;
51499;SDS011;39101;53.478;6.158;2023-04-24T13:32:25;18.97;;;2.57;;
51499;SDS011;39101;53.478;6.158;2023-04-24T13:34:52;14.73;;;2.90;;
51499;SDS011;39101;53.478;6.158;2023-04-24T13:37:18;15.33;;;2.63;;
51499;SDS011;39101;53.478;6.158;2023-04-24T13:39:43;8.60;;;1.90;;
51499;SDS011;39101;53.478;6.158;2023-04-24T13:42:09;8.47;;;2.13;;
51499;SDS011;39101;53.478;6.158;2023-04-24T13:44:35;12.60;;;2.57;;
51499;SDS011;39101;53.478;6.158;2023-04-24T13:47:01;10.27;;;2.73;;
51499;SDS011;39101;53.478;6.158;2023-04-24T13:49:27;11.20;;;2.87;;
51499;SDS011;39101;53.478;6.158;2023-04-24T13:51:54;11.23;;;2.90;;
51499;SDS011;39101;53.478;6.158;2023-04-24T13:54:20;12.30;;;3.27;;
51499;SDS011;39101;53.478;6.158;2023-04-24T13:56:48;10.67;;;3.30;;
51499;SDS011;39101;53.478;6.158;2023-04-24T13:59:14;11.03;;;2.63;;
51499;SDS011;39101;53.478;6.158;2023-04-24T14:01:39;11.40;;;2.83;;
51499;SDS011;39101;53.478;6.158;2023-04-24T14:04:05;16.67;;;3.07;;
51499;SDS011;39101;53.478;6.158;2023-04-24T14:06:31;17.03;;;3.57;;
51499;SDS011;39101;53.478;6.158;2023-04-24T14:08:57;21.63;;;5.67;;
51499;SDS011;39101;53.478;6.158;2023-04-24T14:11:22;20.50;;;4.47;;
51499;SDS011;39101;53.478;6.158;2023-04-24T14:13:48;17.07;;;3.97;;
51499;SDS011;39101;53.478;6.158;2023-04-24T14:16:14;18.43;;;3.77;;
51499;SDS011;39101;53.478;6.158;2023-04-24T14:18:40;19.17;;;4.00;;
51499;SDS011;39101;53.478;6.158;2023-04-24T14:21:05;19.10;;;4.30;;
51499;SDS011;39101;53.478;6.158;2023-04-24T14:23:31;19.63;;;4.53;;
51499;SDS011;39101;53.478;6.158;2023-04-24T14:25:57;19.50;;;4.43;;
51499;SDS011;39101;53.478;6.158;2023-04-24T14:28:24;22.43;;;5.70;;
51499;SDS011;39101;53.478;6.158;2023-04-24T14:30:51;18.40;;;4.87;;
51499;SDS011;39101;53.478;6.158;2023-04-24T14:33:17;13.60;;;3.70;;
51499;SDS011;39101;53.478;6.158;2023-04-24T14:35:43;13.10;;;3.63;;
51499;SDS011;39101;53.478;6.158;2023-04-24T14:38:09;12.70;;;4.10;;
51499;SDS011;39101;53.478;6.158;2023-04-24T14:40:35;13.00;;;4.10;;
51499;SDS011;39101;53.478;6.158;2023-04-24T14:43:01;15.37;;;4.40;;
51499;SDS011;39101;53.478;6.158;2023-04-24T14:45:27;13.50;;;3.80;;
51499;SDS011;39101;53.478;6.158;2023-04-24T14:47:53;17.40;;;4.30;;
51499;SDS011;39101;53.478;6.158;2023-04-24T14:50:19;21.27;;;5.00;;